sensor_id;sensor_type;location;lat;lon;timestamp;P1;durP1;ratioP1;P2;durP2;ratioP2
86546;SDS011;77188;50.862;5.478;2024-03-17T00:00:46;22.60;;;11.40;;
86546;SDS011;77188;50.862;5.478;2024-03-17T00:01:48;22.10;;;11.40;;
86546;SDS011;77188;50.862;5.478;2024-03-17T00:02:51;21.30;;;11.20;;
86546;SDS011;77188;50.862;5.478;2024-03-17T00:03:53;26.20;;;11.10;;
86546;SDS011;77188;50.862;5.478;2024-03-17T00:04:56;22.40;;;11.60;;
86546;SDS011;77188;50.862;5.478;2024-03-17T00:05:58;22.20;;;10.80;;
86546;SDS011;77188;50.862;5.478;2024-03-17T00:07:02;25.20;;;11.40;;
86546;SDS011;77188;50.862;5.478;2024-03-17T00:08:05;22.80;;;11.90;;
86546;SDS011;77188;50.862;5.478;2024-03-17T00:09:09;24.30;;;11.40;;
86546;SDS011;77188;50.862;5.478;2024-03-17T00:10:11;22.20;;;11.30;;
86546;SDS011;77188;50.862;5.478;2024-03-17T00:11:14;24.20;;;11.80;;
86546;SDS011;77188;50.862;5.478;2024-03-17T00:12:16;21.70;;;12.00;;
86546;SDS011;77188;50.862;5.478;2024-03-17T00:13:18;22.90;;;12.40;;
86546;SDS011;77188;50.862;5.478;2024-03-17T00:14:22;24.30;;;12.00;;
86546;SDS011;77188;50.862;5.478;2024-03-17T00:15:25;25.60;;;11.80;;
86546;SDS011;77188;50.862;5.478;2024-03-17T00:16:27;32.60;;;12.80;;
86546;SDS011;77188;50.862;5.478;2024-03-17T00:17:29;28.00;;;11.50;;
86546;SDS011;77188;50.862;5.478;2024-03-17T00:18:32;24.50;;;11.60;;
86546;SDS011;77188;50.862;5.478;2024-03-17T00:19:34;26.70;;;11.90;;
86546;SDS011;77188;50.862;5.478;2024-03-17T00:20:37;25.70;;;12.00;;
86546;SDS011;77188;50.862;5.478;2024-03-17T00:21:39;19.40;;;10.80;;
86546;SDS011;77188;50.862;5.478;2024-03-17T00:22:42;20.60;;;12.10;;
86546;SDS011;77188;50.862;5.478;2024-03-17T00:23:44;20.40;;;11.40;;
86546;SDS011;77188;50.862;5.478;2024-03-17T00:24:46;22.40;;;11.50;;
86546;SDS011;77188;50.862;5.478;2024-03-17T00:25:49;22.10;;;11.40;;
86546;SDS011;77188;50.862;5.478;2024-03-17T00:26:52;21.60;;;11.90;;
86546;SDS011;77188;50.862;5.478;2024-03-17T00:27:54;25.10;;;10.80;;
86546;SDS011;77188;50.862;5.478;2024-03-17T00:28:58;22.30;;;11.40;;
86546;SDS011;77188;50.862;5.478;2024-03-17T00:30:01;23.60;;;11.20;;
86546;SDS011;77188;50.862;5.478;2024-03-17T00:31:04;19.10;;;11.10;;
86546;SDS011;77188;50.862;5.478;2024-03-17T00:32:07;22.80;;;10.60;;
86546;SDS011;77188;50.862;5.478;2024-03-17T00:33:09;21.10;;;11.20;;
86546;SDS011;77188;50.862;5.478;2024-03-17T00:34:12;24.00;;;11.30;;
86546;SDS011;77188;50.862;5.478;2024-03-17T00:35:14;20.30;;;10.50;;
86546;SDS011;77188;50.862;5.478;2024-03-17T00:36:21;18.50;;;10.80;;
86546;SDS011;77188;50.862;5.478;2024-03-17T00:37:23;21.50;;;10.80;;
86546;SDS011;77188;50.862;5.478;2024-03-17T00:38:26;19.30;;;10.40;;
86546;SDS011;77188;50.862;5.478;2024-03-17T00:39:28;22.10;;;10.90;;
86546;SDS011;77188;50.862;5.478;2024-03-17T00:40:31;21.30;;;10.70;;
86546;SDS011;77188;50.862;5.478;2024-03-17T00:41:33;20.00;;;10.20;;
86546;SDS011;77188;50.862;5.478;2024-03-17T00:42:35;18.30;;;10.40;;
86546;SDS011;77188;50.862;5.478;2024-03-17T00:43:38;16.90;;;9.50;;
86546;SDS011;77188;50.862;5.478;2024-03-17T00:44:41;20.10;;;10.00;;
86546;SDS011;77188;50.862;5.478;2024-03-17T00:45:43;17.60;;;9.80;;
86546;SDS011;77188;50.862;5.478;2024-03-17T00:46:52;16.10;;;9.30;;
86546;SDS011;77188;50.862;5.478;2024-03-17T00:47:55;18.50;;;9.90;;
86546;SDS011;77188;50.862;5.478;2024-03-17T00:48:57;18.40;;;9.50;;
86546;SDS011;77188;50.862;5.478;2024-03-17T00:50:01;18.70;;;10.10;;
86546;SDS011;77188;50.862;5.478;2024-03-17T00:51:05;16.90;;;9.90;;
86546;SDS011;77188;50.862;5.478;2024-03-17T00:53:09;19.80;;;10.20;;
86546;SDS011;77188;50.862;5.478;2024-03-17T00:54:11;23.90;;;9.40;;
86546;SDS011;77188;50.862;5.478;2024-03-17T00:55:14;17.80;;;10.20;;
86546;SDS011;77188;50.862;5.478;2024-03-17T00:56:16;18.30;;;9.70;;
86546;SDS011;77188;50.862;5.478;2024-03-17T00:57:19;16.00;;;9.20;;
86546;SDS011;77188;50.862;5.478;2024-03-17T00:58:21;19.60;;;8.90;;
86546;SDS011;77188;50.862;5.478;2024-03-17T00:59:24;17.00;;;9.60;;
86546;SDS011;77188;50.862;5.478;2024-03-17T01:00:26;17.10;;;9.40;;
86546;SDS011;77188;50.862;5.478;2024-03-17T01:01:29;19.40;;;9.60;;
86546;SDS011;77188;50.862;5.478;2024-03-17T01:02:31;18.60;;;9.50;;
86546;SDS011;77188;50.862;5.478;2024-03-17T01:03:34;19.10;;;9.30;;
86546;SDS011;77188;50.862;5.478;2024-03-17T01:04:36;20.70;;;10.30;;
86546;SDS011;77188;50.862;5.478;2024-03-17T01:05:39;18.00;;;9.00;;
86546;SDS011;77188;50.862;5.478;2024-03-17T01:06:43;17.70;;;9.40;;
86546;SDS011;77188;50.862;5.478;2024-03-17T01:07:45;16.30;;;8.50;;
86546;SDS011;77188;50.862;5.478;2024-03-17T01:08:49;18.30;;;9.20;;
86546;SDS011;77188;50.862;5.478;2024-03-17T01:09:53;16.30;;;8.80;;
86546;SDS011;77188;50.862;5.478;2024-03-17T01:10:55;17.80;;;9.10;;
86546;SDS011;77188;50.862;5.478;2024-03-17T01:11:59;18.20;;;9.50;;
86546;SDS011;77188;50.862;5.478;2024-03-17T01:13:01;18.10;;;9.50;;
86546;SDS011;77188;50.862;5.478;2024-03-17T01:14:04;17.50;;;9.00;;
86546;SDS011;77188;50.862;5.478;2024-03-17T01:15:09;17.90;;;9.00;;
86546;SDS011;77188;50.862;5.478;2024-03-17T01:16:12;18.00;;;9.40;;
86546;SDS011;77188;50.862;5.478;2024-03-17T01:17:15;18.50;;;8.80;;
86546;SDS011;77188;50.862;5.478;2024-03-17T01:18:19;16.80;;;9.10;;
86546;SDS011;77188;50.862;5.478;2024-03-17T01:19:22;17.20;;;9.00;;
86546;SDS011;77188;50.862;5.478;2024-03-17T01:20:25;21.00;;;9.60;;
86546;SDS011;77188;50.862;5.478;2024-03-17T01:21:28;16.30;;;8.90;;
86546;SDS011;77188;50.862;5.478;2024-03-17T01:22:30;21.60;;;10.30;;
86546;SDS011;77188;50.862;5.478;2024-03-17T01:23:32;16.10;;;9.20;;
86546;SDS011;77188;50.862;5.478;2024-03-17T01:24:35;19.00;;;9.20;;
86546;SDS011;77188;50.862;5.478;2024-03-17T01:25:40;15.20;;;8.10;;
86546;SDS011;77188;50.862;5.478;2024-03-17T01:26:43;17.60;;;8.70;;
86546;SDS011;77188;50.862;5.478;2024-03-17T01:27:46;18.20;;;9.10;;
86546;SDS011;77188;50.862;5.478;2024-03-17T01:28:48;16.50;;;8.70;;
86546;SDS011;77188;50.862;5.478;2024-03-17T01:29:51;17.40;;;8.90;;
86546;SDS011;77188;50.862;5.478;2024-03-17T01:30:53;14.40;;;8.00;;
86546;SDS011;77188;50.862;5.478;2024-03-17T01:31:56;15.30;;;8.60;;
86546;SDS011;77188;50.862;5.478;2024-03-17T01:32:58;15.40;;;8.10;;
86546;SDS011;77188;50.862;5.478;2024-03-17T01:34:01;14.80;;;8.30;;
86546;SDS011;77188;50.862;5.478;2024-03-17T01:35:04;17.80;;;8.60;;
86546;SDS011;77188;50.862;5.478;2024-03-17T01:36:07;18.70;;;9.60;;
86546;SDS011;77188;50.862;5.478;2024-03-17T01:37:10;14.80;;;8.80;;
86546;SDS011;77188;50.862;5.478;2024-03-17T01:38:12;17.20;;;8.50;;
86546;SDS011;77188;50.862;5.478;2024-03-17T01:39:14;15.60;;;8.30;;
86546;SDS011;77188;50.862;5.478;2024-03-17T01:40:19;16.50;;;8.40;;
86546;SDS011;77188;50.862;5.478;2024-03-17T01:41:22;14.10;;;8.00;;
86546;SDS011;77188;50.862;5.478;2024-03-17T01:42:24;22.80;;;9.10;;
86546;SDS011;77188;50.862;5.478;2024-03-17T01:43:27;12.80;;;7.20;;
86546;SDS011;77188;50.862;5.478;2024-03-17T01:44:29;15.40;;;8.60;;
86546;SDS011;77188;50.862;5.478;2024-03-17T01:45:32;13.00;;;7.60;;
86546;SDS011;77188;50.862;5.478;2024-03-17T01:46:35;13.80;;;7.60;;
86546;SDS011;77188;50.862;5.478;2024-03-17T01:48:40;13.30;;;7.20;;
86546;SDS011;77188;50.862;5.478;2024-03-17T01:49:43;16.60;;;8.00;;
86546;SDS011;77188;50.862;5.478;2024-03-17T01:50:45;16.10;;;8.30;;
86546;SDS011;77188;50.862;5.478;2024-03-17T01:51:50;15.00;;;8.00;;
86546;SDS011;77188;50.862;5.478;2024-03-17T01:52:55;18.60;;;8.30;;
86546;SDS011;77188;50.862;5.478;2024-03-17T01:54:00;17.80;;;8.60;;
86546;SDS011;77188;50.862;5.478;2024-03-17T01:55:04;13.80;;;7.30;;
86546;SDS011;77188;50.862;5.478;2024-03-17T01:56:07;15.20;;;7.50;;
86546;SDS011;77188;50.862;5.478;2024-03-17T01:57:12;15.40;;;7.90;;
86546;SDS011;77188;50.862;5.478;2024-03-17T01:58:15;14.30;;;7.90;;
86546;SDS011;77188;50.862;5.478;2024-03-17T01:59:18;16.90;;;8.20;;
86546;SDS011;77188;50.862;5.478;2024-03-17T02:00:20;12.90;;;7.70;;
86546;SDS011;77188;50.862;5.478;2024-03-17T02:01:23;16.30;;;8.40;;
86546;SDS011;77188;50.862;5.478;2024-03-17T02:02:26;16.80;;;7.80;;
86546;SDS011;77188;50.862;5.478;2024-03-17T02:03:28;14.30;;;7.70;;
86546;SDS011;77188;50.862;5.478;2024-03-17T02:04:31;14.90;;;7.50;;
86546;SDS011;77188;50.862;5.478;2024-03-17T02:05:35;15.50;;;8.20;;
86546;SDS011;77188;50.862;5.478;2024-03-17T02:06:38;16.70;;;8.00;;
86546;SDS011;77188;50.862;5.478;2024-03-17T02:07:41;15.40;;;8.40;;
86546;SDS011;77188;50.862;5.478;2024-03-17T02:08:49;16.90;;;7.60;;
86546;SDS011;77188;50.862;5.478;2024-03-17T02:09:53;18.40;;;7.70;;
86546;SDS011;77188;50.862;5.478;2024-03-17T02:10:57;15.70;;;7.90;;
86546;SDS011;77188;50.862;5.478;2024-03-17T02:12:00;14.80;;;7.50;;
86546;SDS011;77188;50.862;5.478;2024-03-17T02:13:02;14.80;;;7.70;;
86546;SDS011;77188;50.862;5.478;2024-03-17T02:14:06;16.10;;;7.70;;
86546;SDS011;77188;50.862;5.478;2024-03-17T02:15:09;13.70;;;7.60;;
86546;SDS011;77188;50.862;5.478;2024-03-17T02:16:11;12.40;;;7.10;;
86546;SDS011;77188;50.862;5.478;2024-03-17T02:17:13;14.50;;;7.30;;
86546;SDS011;77188;50.862;5.478;2024-03-17T02:18:16;12.10;;;6.80;;
86546;SDS011;77188;50.862;5.478;2024-03-17T02:19:19;15.60;;;7.50;;
86546;SDS011;77188;50.862;5.478;2024-03-17T02:20:21;11.10;;;6.60;;
86546;SDS011;77188;50.862;5.478;2024-03-17T02:21:45;14.40;;;6.50;;
86546;SDS011;77188;50.862;5.478;2024-03-17T02:22:47;13.00;;;6.70;;
86546;SDS011;77188;50.862;5.478;2024-03-17T02:23:50;12.70;;;6.20;;
86546;SDS011;77188;50.862;5.478;2024-03-17T02:24:52;11.00;;;6.30;;
86546;SDS011;77188;50.862;5.478;2024-03-17T02:25:55;13.10;;;6.20;;
86546;SDS011;77188;50.862;5.478;2024-03-17T02:26:57;12.10;;;7.20;;
86546;SDS011;77188;50.862;5.478;2024-03-17T02:28:00;12.20;;;6.50;;
86546;SDS011;77188;50.862;5.478;2024-03-17T02:29:02;13.00;;;6.10;;
86546;SDS011;77188;50.862;5.478;2024-03-17T02:30:06;10.40;;;6.20;;
86546;SDS011;77188;50.862;5.478;2024-03-17T02:31:10;13.30;;;6.30;;
86546;SDS011;77188;50.862;5.478;2024-03-17T02:32:13;12.90;;;6.90;;
86546;SDS011;77188;50.862;5.478;2024-03-17T02:33:16;13.20;;;6.40;;
86546;SDS011;77188;50.862;5.478;2024-03-17T02:34:18;10.90;;;6.30;;
86546;SDS011;77188;50.862;5.478;2024-03-17T02:35:21;12.00;;;6.20;;
86546;SDS011;77188;50.862;5.478;2024-03-17T02:36:23;13.80;;;6.60;;
86546;SDS011;77188;50.862;5.478;2024-03-17T02:37:26;12.00;;;6.50;;
86546;SDS011;77188;50.862;5.478;2024-03-17T02:38:28;11.00;;;6.00;;
86546;SDS011;77188;50.862;5.478;2024-03-17T02:39:50;11.60;;;6.80;;
86546;SDS011;77188;50.862;5.478;2024-03-17T02:40:52;12.40;;;6.10;;
86546;SDS011;77188;50.862;5.478;2024-03-17T02:41:55;12.50;;;6.50;;
86546;SDS011;77188;50.862;5.478;2024-03-17T02:42:57;14.50;;;6.40;;
86546;SDS011;77188;50.862;5.478;2024-03-17T02:43:59;11.80;;;6.10;;
86546;SDS011;77188;50.862;5.478;2024-03-17T02:45:02;9.20;;;5.40;;
86546;SDS011;77188;50.862;5.478;2024-03-17T02:46:10;13.00;;;6.10;;
86546;SDS011;77188;50.862;5.478;2024-03-17T02:47:13;12.10;;;6.10;;
86546;SDS011;77188;50.862;5.478;2024-03-17T02:48:16;9.60;;;5.60;;
86546;SDS011;77188;50.862;5.478;2024-03-17T02:49:18;10.70;;;6.20;;
86546;SDS011;77188;50.862;5.478;2024-03-17T02:50:21;12.90;;;6.70;;
86546;SDS011;77188;50.862;5.478;2024-03-17T02:51:23;10.80;;;5.80;;
86546;SDS011;77188;50.862;5.478;2024-03-17T02:52:26;12.70;;;5.90;;
86546;SDS011;77188;50.862;5.478;2024-03-17T02:53:28;11.50;;;6.00;;
86546;SDS011;77188;50.862;5.478;2024-03-17T02:54:30;14.40;;;6.70;;
86546;SDS011;77188;50.862;5.478;2024-03-17T02:55:33;10.10;;;5.80;;
86546;SDS011;77188;50.862;5.478;2024-03-17T02:56:35;12.40;;;6.20;;
86546;SDS011;77188;50.862;5.478;2024-03-17T02:57:38;11.30;;;5.80;;
86546;SDS011;77188;50.862;5.478;2024-03-17T02:58:41;10.20;;;5.40;;
86546;SDS011;77188;50.862;5.478;2024-03-17T02:59:45;10.20;;;5.80;;
86546;SDS011;77188;50.862;5.478;2024-03-17T03:00:47;12.90;;;5.40;;
86546;SDS011;77188;50.862;5.478;2024-03-17T03:01:51;10.70;;;6.00;;
86546;SDS011;77188;50.862;5.478;2024-03-17T03:02:53;11.10;;;5.80;;
86546;SDS011;77188;50.862;5.478;2024-03-17T03:03:56;11.20;;;5.70;;
86546;SDS011;77188;50.862;5.478;2024-03-17T03:04:58;12.80;;;5.80;;
86546;SDS011;77188;50.862;5.478;2024-03-17T03:06:00;9.50;;;5.10;;
86546;SDS011;77188;50.862;5.478;2024-03-17T03:07:05;11.60;;;6.70;;
86546;SDS011;77188;50.862;5.478;2024-03-17T03:08:08;9.50;;;5.70;;
86546;SDS011;77188;50.862;5.478;2024-03-17T03:09:10;9.40;;;5.20;;
86546;SDS011;77188;50.862;5.478;2024-03-17T03:10:15;9.50;;;5.30;;
86546;SDS011;77188;50.862;5.478;2024-03-17T03:11:17;11.00;;;5.10;;
86546;SDS011;77188;50.862;5.478;2024-03-17T03:12:19;9.70;;;5.20;;
86546;SDS011;77188;50.862;5.478;2024-03-17T03:13:22;10.40;;;5.30;;
86546;SDS011;77188;50.862;5.478;2024-03-17T03:14:24;15.60;;;6.30;;
86546;SDS011;77188;50.862;5.478;2024-03-17T03:15:27;11.00;;;5.60;;
86546;SDS011;77188;50.862;5.478;2024-03-17T03:16:33;10.90;;;5.40;;
86546;SDS011;77188;50.862;5.478;2024-03-17T03:17:36;11.40;;;5.40;;
86546;SDS011;77188;50.862;5.478;2024-03-17T03:18:39;11.10;;;6.00;;
86546;SDS011;77188;50.862;5.478;2024-03-17T03:19:42;9.50;;;5.20;;
86546;SDS011;77188;50.862;5.478;2024-03-17T03:20:50;9.90;;;5.90;;
86546;SDS011;77188;50.862;5.478;2024-03-17T03:21:53;13.10;;;5.20;;
86546;SDS011;77188;50.862;5.478;2024-03-17T03:22:55;9.20;;;5.00;;
86546;SDS011;77188;50.862;5.478;2024-03-17T03:23:58;9.70;;;5.40;;
86546;SDS011;77188;50.862;5.478;2024-03-17T03:25:00;10.10;;;5.30;;
86546;SDS011;77188;50.862;5.478;2024-03-17T03:26:03;9.70;;;5.60;;
86546;SDS011;77188;50.862;5.478;2024-03-17T03:27:06;10.60;;;5.60;;
86546;SDS011;77188;50.862;5.478;2024-03-17T03:28:09;11.40;;;6.00;;
86546;SDS011;77188;50.862;5.478;2024-03-17T03:29:11;10.50;;;5.40;;
86546;SDS011;77188;50.862;5.478;2024-03-17T03:30:15;11.60;;;5.60;;
86546;SDS011;77188;50.862;5.478;2024-03-17T03:31:21;10.50;;;5.50;;
86546;SDS011;77188;50.862;5.478;2024-03-17T03:32:24;10.00;;;5.10;;
86546;SDS011;77188;50.862;5.478;2024-03-17T03:33:26;10.90;;;5.20;;
86546;SDS011;77188;50.862;5.478;2024-03-17T03:35:31;9.20;;;5.10;;
86546;SDS011;77188;50.862;5.478;2024-03-17T03:36:33;9.90;;;5.30;;
86546;SDS011;77188;50.862;5.478;2024-03-17T03:37:36;8.80;;;5.30;;
86546;SDS011;77188;50.862;5.478;2024-03-17T03:38:39;12.00;;;5.80;;
86546;SDS011;77188;50.862;5.478;2024-03-17T03:39:42;11.20;;;5.60;;
86546;SDS011;77188;50.862;5.478;2024-03-17T03:40:44;11.10;;;5.60;;
86546;SDS011;77188;50.862;5.478;2024-03-17T03:41:48;11.00;;;5.40;;
86546;SDS011;77188;50.862;5.478;2024-03-17T03:42:51;10.70;;;5.30;;
86546;SDS011;77188;50.862;5.478;2024-03-17T03:43:54;11.70;;;5.30;;
86546;SDS011;77188;50.862;5.478;2024-03-17T03:44:56;12.40;;;5.50;;
86546;SDS011;77188;50.862;5.478;2024-03-17T03:45:59;13.90;;;5.40;;
86546;SDS011;77188;50.862;5.478;2024-03-17T03:47:02;10.30;;;5.10;;
86546;SDS011;77188;50.862;5.478;2024-03-17T03:48:06;11.30;;;5.50;;
86546;SDS011;77188;50.862;5.478;2024-03-17T03:49:09;9.20;;;5.40;;
86546;SDS011;77188;50.862;5.478;2024-03-17T03:50:14;10.10;;;5.50;;
86546;SDS011;77188;50.862;5.478;2024-03-17T03:51:17;10.40;;;5.50;;
86546;SDS011;77188;50.862;5.478;2024-03-17T03:52:19;12.10;;;5.60;;
86546;SDS011;77188;50.862;5.478;2024-03-17T03:54:23;10.80;;;5.20;;
86546;SDS011;77188;50.862;5.478;2024-03-17T03:55:26;12.20;;;5.40;;
86546;SDS011;77188;50.862;5.478;2024-03-17T03:56:30;10.20;;;5.00;;
86546;SDS011;77188;50.862;5.478;2024-03-17T03:57:32;11.80;;;5.60;;
86546;SDS011;77188;50.862;5.478;2024-03-17T03:58:35;11.30;;;5.20;;
86546;SDS011;77188;50.862;5.478;2024-03-17T03:59:38;13.10;;;5.40;;
86546;SDS011;77188;50.862;5.478;2024-03-17T04:00:41;11.40;;;4.90;;
86546;SDS011;77188;50.862;5.478;2024-03-17T04:01:43;12.50;;;5.40;;
86546;SDS011;77188;50.862;5.478;2024-03-17T04:02:45;10.40;;;5.80;;
86546;SDS011;77188;50.862;5.478;2024-03-17T04:03:49;12.80;;;5.40;;
86546;SDS011;77188;50.862;5.478;2024-03-17T04:04:51;10.00;;;5.80;;
86546;SDS011;77188;50.862;5.478;2024-03-17T04:06:00;10.80;;;5.70;;
86546;SDS011;77188;50.862;5.478;2024-03-17T04:07:06;11.40;;;5.50;;
86546;SDS011;77188;50.862;5.478;2024-03-17T04:08:09;11.00;;;4.90;;
86546;SDS011;77188;50.862;5.478;2024-03-17T04:09:11;15.30;;;5.80;;
86546;SDS011;77188;50.862;5.478;2024-03-17T04:10:14;9.00;;;5.20;;
86546;SDS011;77188;50.862;5.478;2024-03-17T04:11:19;11.90;;;5.60;;
86546;SDS011;77188;50.862;5.478;2024-03-17T04:12:23;10.90;;;4.70;;
86546;SDS011;77188;50.862;5.478;2024-03-17T04:13:26;12.80;;;5.00;;
86546;SDS011;77188;50.862;5.478;2024-03-17T04:14:28;11.40;;;5.60;;
86546;SDS011;77188;50.862;5.478;2024-03-17T04:16:32;11.50;;;5.20;;
86546;SDS011;77188;50.862;5.478;2024-03-17T04:17:35;12.80;;;6.00;;
86546;SDS011;77188;50.862;5.478;2024-03-17T04:18:40;14.00;;;6.00;;
86546;SDS011;77188;50.862;5.478;2024-03-17T04:19:42;11.50;;;5.70;;
86546;SDS011;77188;50.862;5.478;2024-03-17T04:20:46;11.40;;;5.10;;
86546;SDS011;77188;50.862;5.478;2024-03-17T04:21:48;9.30;;;5.10;;
86546;SDS011;77188;50.862;5.478;2024-03-17T04:22:51;12.80;;;5.70;;
86546;SDS011;77188;50.862;5.478;2024-03-17T04:23:53;9.50;;;5.00;;
86546;SDS011;77188;50.862;5.478;2024-03-17T04:24:56;9.50;;;5.20;;
86546;SDS011;77188;50.862;5.478;2024-03-17T04:25:58;9.50;;;5.20;;
86546;SDS011;77188;50.862;5.478;2024-03-17T04:27:02;10.60;;;5.30;;
86546;SDS011;77188;50.862;5.478;2024-03-17T04:28:05;13.90;;;5.80;;
86546;SDS011;77188;50.862;5.478;2024-03-17T04:29:07;11.90;;;5.10;;
86546;SDS011;77188;50.862;5.478;2024-03-17T04:30:10;10.10;;;5.40;;
86546;SDS011;77188;50.862;5.478;2024-03-17T04:32:14;12.40;;;5.60;;
86546;SDS011;77188;50.862;5.478;2024-03-17T04:33:16;10.40;;;4.80;;
86546;SDS011;77188;50.862;5.478;2024-03-17T04:34:19;8.50;;;4.90;;
86546;SDS011;77188;50.862;5.478;2024-03-17T04:35:21;9.30;;;4.90;;
86546;SDS011;77188;50.862;5.478;2024-03-17T04:36:24;8.40;;;4.90;;
86546;SDS011;77188;50.862;5.478;2024-03-17T04:37:27;9.80;;;5.30;;
86546;SDS011;77188;50.862;5.478;2024-03-17T04:38:29;9.50;;;4.60;;
86546;SDS011;77188;50.862;5.478;2024-03-17T04:39:32;10.40;;;5.50;;
86546;SDS011;77188;50.862;5.478;2024-03-17T04:40:34;9.30;;;5.10;;
86546;SDS011;77188;50.862;5.478;2024-03-17T04:41:41;9.20;;;4.90;;
86546;SDS011;77188;50.862;5.478;2024-03-17T04:42:44;10.00;;;5.30;;
86546;SDS011;77188;50.862;5.478;2024-03-17T04:43:46;11.10;;;5.50;;
86546;SDS011;77188;50.862;5.478;2024-03-17T04:44:49;9.80;;;5.00;;
86546;SDS011;77188;50.862;5.478;2024-03-17T04:45:59;9.00;;;4.80;;
86546;SDS011;77188;50.862;5.478;2024-03-17T04:47:05;11.90;;;5.10;;
86546;SDS011;77188;50.862;5.478;2024-03-17T04:48:07;9.40;;;4.70;;
86546;SDS011;77188;50.862;5.478;2024-03-17T04:49:10;14.90;;;6.30;;
86546;SDS011;77188;50.862;5.478;2024-03-17T04:50:12;11.40;;;5.40;;
86546;SDS011;77188;50.862;5.478;2024-03-17T04:51:15;12.10;;;6.40;;
86546;SDS011;77188;50.862;5.478;2024-03-17T04:52:18;13.00;;;5.40;;
86546;SDS011;77188;50.862;5.478;2024-03-17T04:53:21;9.90;;;5.10;;
86546;SDS011;77188;50.862;5.478;2024-03-17T04:54:23;8.00;;;4.90;;
86546;SDS011;77188;50.862;5.478;2024-03-17T04:55:26;10.30;;;5.40;;
86546;SDS011;77188;50.862;5.478;2024-03-17T04:56:29;11.50;;;5.40;;
86546;SDS011;77188;50.862;5.478;2024-03-17T04:57:32;11.00;;;4.90;;
86546;SDS011;77188;50.862;5.478;2024-03-17T04:58:34;9.80;;;5.00;;
86546;SDS011;77188;50.862;5.478;2024-03-17T04:59:37;10.10;;;4.90;;
86546;SDS011;77188;50.862;5.478;2024-03-17T05:00:39;9.60;;;5.00;;
86546;SDS011;77188;50.862;5.478;2024-03-17T05:01:42;12.30;;;6.10;;
86546;SDS011;77188;50.862;5.478;2024-03-17T05:02:44;11.30;;;5.30;;
86546;SDS011;77188;50.862;5.478;2024-03-17T05:03:47;12.80;;;5.20;;
86546;SDS011;77188;50.862;5.478;2024-03-17T05:04:52;10.40;;;5.80;;
86546;SDS011;77188;50.862;5.478;2024-03-17T05:06:00;9.80;;;5.60;;
86546;SDS011;77188;50.862;5.478;2024-03-17T05:07:04;12.30;;;5.10;;
86546;SDS011;77188;50.862;5.478;2024-03-17T05:08:07;7.40;;;4.70;;
86546;SDS011;77188;50.862;5.478;2024-03-17T05:09:09;11.20;;;5.00;;
86546;SDS011;77188;50.862;5.478;2024-03-17T05:10:14;11.40;;;5.30;;
86546;SDS011;77188;50.862;5.478;2024-03-17T05:11:16;10.60;;;5.20;;
86546;SDS011;77188;50.862;5.478;2024-03-17T05:12:19;9.90;;;5.50;;
86546;SDS011;77188;50.862;5.478;2024-03-17T05:13:22;11.80;;;5.20;;
86546;SDS011;77188;50.862;5.478;2024-03-17T05:14:24;12.10;;;5.50;;
86546;SDS011;77188;50.862;5.478;2024-03-17T05:15:27;10.30;;;5.30;;
86546;SDS011;77188;50.862;5.478;2024-03-17T05:16:29;10.40;;;5.00;;
86546;SDS011;77188;50.862;5.478;2024-03-17T05:17:32;11.50;;;5.50;;
86546;SDS011;77188;50.862;5.478;2024-03-17T05:18:34;12.00;;;5.30;;
86546;SDS011;77188;50.862;5.478;2024-03-17T05:19:39;10.90;;;4.90;;
86546;SDS011;77188;50.862;5.478;2024-03-17T05:20:41;10.20;;;4.80;;
86546;SDS011;77188;50.862;5.478;2024-03-17T05:21:44;12.50;;;5.20;;
86546;SDS011;77188;50.862;5.478;2024-03-17T05:22:46;12.60;;;4.80;;
86546;SDS011;77188;50.862;5.478;2024-03-17T05:23:50;10.50;;;4.90;;
86546;SDS011;77188;50.862;5.478;2024-03-17T05:24:53;11.20;;;5.30;;
86546;SDS011;77188;50.862;5.478;2024-03-17T05:25:55;9.80;;;5.00;;
86546;SDS011;77188;50.862;5.478;2024-03-17T05:26:59;11.20;;;5.10;;
86546;SDS011;77188;50.862;5.478;2024-03-17T05:28:01;12.80;;;5.30;;
86546;SDS011;77188;50.862;5.478;2024-03-17T05:29:05;9.70;;;4.90;;
86546;SDS011;77188;50.862;5.478;2024-03-17T05:30:08;7.80;;;4.60;;
86546;SDS011;77188;50.862;5.478;2024-03-17T05:31:11;11.70;;;4.70;;
86546;SDS011;77188;50.862;5.478;2024-03-17T05:32:16;10.90;;;5.00;;
86546;SDS011;77188;50.862;5.478;2024-03-17T05:33:18;11.10;;;5.00;;
86546;SDS011;77188;50.862;5.478;2024-03-17T05:34:22;11.00;;;5.00;;
86546;SDS011;77188;50.862;5.478;2024-03-17T05:35:25;9.30;;;4.80;;
86546;SDS011;77188;50.862;5.478;2024-03-17T05:36:27;12.10;;;5.40;;
86546;SDS011;77188;50.862;5.478;2024-03-17T05:37:33;9.10;;;4.80;;
86546;SDS011;77188;50.862;5.478;2024-03-17T05:38:36;11.50;;;5.30;;
86546;SDS011;77188;50.862;5.478;2024-03-17T05:39:38;10.90;;;5.60;;
86546;SDS011;77188;50.862;5.478;2024-03-17T05:40:41;10.40;;;4.90;;
86546;SDS011;77188;50.862;5.478;2024-03-17T05:41:43;10.60;;;5.30;;
86546;SDS011;77188;50.862;5.478;2024-03-17T05:42:49;9.50;;;4.90;;
86546;SDS011;77188;50.862;5.478;2024-03-17T05:43:52;10.70;;;5.10;;
86546;SDS011;77188;50.862;5.478;2024-03-17T05:44:58;8.70;;;4.60;;
86546;SDS011;77188;50.862;5.478;2024-03-17T05:47:04;11.00;;;5.10;;
86546;SDS011;77188;50.862;5.478;2024-03-17T05:48:09;10.30;;;5.00;;
86546;SDS011;77188;50.862;5.478;2024-03-17T05:49:11;13.40;;;5.40;;
86546;SDS011;77188;50.862;5.478;2024-03-17T05:50:13;12.70;;;5.20;;
86546;SDS011;77188;50.862;5.478;2024-03-17T05:51:16;12.40;;;5.00;;
86546;SDS011;77188;50.862;5.478;2024-03-17T05:52:19;12.80;;;5.40;;
86546;SDS011;77188;50.862;5.478;2024-03-17T05:53:22;10.70;;;5.00;;
86546;SDS011;77188;50.862;5.478;2024-03-17T05:54:25;8.30;;;4.70;;
86546;SDS011;77188;50.862;5.478;2024-03-17T05:55:27;9.50;;;5.30;;
86546;SDS011;77188;50.862;5.478;2024-03-17T05:56:30;10.40;;;5.10;;
86546;SDS011;77188;50.862;5.478;2024-03-17T05:57:32;9.70;;;5.50;;
86546;SDS011;77188;50.862;5.478;2024-03-17T05:58:35;8.70;;;4.50;;
86546;SDS011;77188;50.862;5.478;2024-03-17T05:59:38;9.20;;;5.20;;
86546;SDS011;77188;50.862;5.478;2024-03-17T06:00:40;9.10;;;4.90;;
86546;SDS011;77188;50.862;5.478;2024-03-17T06:01:43;10.10;;;5.00;;
86546;SDS011;77188;50.862;5.478;2024-03-17T06:02:45;13.90;;;5.30;;
86546;SDS011;77188;50.862;5.478;2024-03-17T06:03:48;10.70;;;4.90;;
86546;SDS011;77188;50.862;5.478;2024-03-17T06:04:50;10.50;;;5.20;;
86546;SDS011;77188;50.862;5.478;2024-03-17T06:05:52;11.90;;;5.20;;
86546;SDS011;77188;50.862;5.478;2024-03-17T06:06:55;13.20;;;5.20;;
86546;SDS011;77188;50.862;5.478;2024-03-17T06:07:57;10.80;;;4.90;;
86546;SDS011;77188;50.862;5.478;2024-03-17T06:09:00;11.20;;;5.50;;
86546;SDS011;77188;50.862;5.478;2024-03-17T06:10:06;8.50;;;4.80;;
86546;SDS011;77188;50.862;5.478;2024-03-17T06:11:10;12.20;;;5.60;;
86546;SDS011;77188;50.862;5.478;2024-03-17T06:12:12;12.50;;;5.60;;
86546;SDS011;77188;50.862;5.478;2024-03-17T06:13:15;11.20;;;5.30;;
86546;SDS011;77188;50.862;5.478;2024-03-17T06:14:17;10.30;;;4.90;;
86546;SDS011;77188;50.862;5.478;2024-03-17T06:15:20;10.10;;;4.80;;
86546;SDS011;77188;50.862;5.478;2024-03-17T06:16:24;10.30;;;5.10;;
86546;SDS011;77188;50.862;5.478;2024-03-17T06:17:26;9.40;;;4.60;;
86546;SDS011;77188;50.862;5.478;2024-03-17T06:18:29;10.00;;;4.70;;
86546;SDS011;77188;50.862;5.478;2024-03-17T06:19:31;12.00;;;5.30;;
86546;SDS011;77188;50.862;5.478;2024-03-17T06:20:34;12.70;;;5.80;;
86546;SDS011;77188;50.862;5.478;2024-03-17T06:21:37;12.60;;;5.20;;
86546;SDS011;77188;50.862;5.478;2024-03-17T06:22:40;11.20;;;4.90;;